createdAt,value
2022-10-12T00:00:06.474Z,80.44
2022-10-12T00:02:41.075Z,80.21
2022-10-12T00:05:08.856Z,80.34
2022-10-12T00:07:36.739Z,81.38
2022-10-12T00:10:04.969Z,79.87
2022-10-12T00:12:32.459Z,79.16
2022-10-12T00:14:59.921Z,79.96
2022-10-12T00:17:27.319Z,78.55
2022-10-12T00:19:54.720Z,78.61
2022-10-12T00:22:22.217Z,77.02
2022-10-12T00:24:49.756Z,76.23
2022-10-12T00:27:17.124Z,75.68
2022-10-12T00:29:44.698Z,76.03
2022-10-12T00:32:12.274Z,75.90
2022-10-12T00:34:39.788Z,76.97
2022-10-12T00:37:07.144Z,77.58
2022-10-12T00:39:34.759Z,77.71
2022-10-12T00:42:02.202Z,78.01
2022-10-12T00:44:43.083Z,78.79
2022-10-12T00:47:17.788Z,78.60
2022-10-12T00:49:56.724Z,79.18
2022-10-12T00:52:29.808Z,77.99
2022-10-12T00:54:57.941Z,78.16
2022-10-12T00:57:25.540Z,77.40
2022-10-12T00:59:58.703Z,77.61
2022-10-12T01:02:29.463Z,77.05
2022-10-12T01:04:57.692Z,77.72
2022-10-12T01:07:25.336Z,77.12
2022-10-12T01:09:53.063Z,77.11
2022-10-12T01:12:21.411Z,77.68
2022-10-12T01:14:49.074Z,77.78
2022-10-12T01:17:22.635Z,77.22
2022-10-12T01:20:10.163Z,77.18
2022-10-12T01:23:05.969Z,78.97
2022-10-12T01:25:45.243Z,78.21
2022-10-12T01:28:35.887Z,78.86
2022-10-12T01:31:18.436Z,79.18
2022-10-12T01:33:50.635Z,79.33
2022-10-12T01:36:27.192Z,79.89
2022-10-12T01:39:22.483Z,80.61
2022-10-12T01:41:55.432Z,79.62
2022-10-12T01:44:25.886Z,79.51
2022-10-12T01:46:55.551Z,79.19
2022-10-12T01:49:26.648Z,78.99
2022-10-12T01:52:00.956Z,79.56
2022-10-12T01:54:43.826Z,81.98
2022-10-12T01:57:56.415Z,81.19
2022-10-12T02:00:24.491Z,81.03
2022-10-12T02:03:12.782Z,80.19
2022-10-12T02:05:53.841Z,80.57
2022-10-12T02:08:33.279Z,79.75
2022-10-12T02:11:06.657Z,79.69
2022-10-12T02:13:38.613Z,81.16
2022-10-12T02:16:11.705Z,80.65
2022-10-12T02:18:43.820Z,80.51
2022-10-12T02:21:16.066Z,79.90
2022-10-12T02:23:45.669Z,79.33
2022-10-12T02:26:15.660Z,78.92
2022-10-12T02:28:45.055Z,78.93
2022-10-12T02:31:19.519Z,79.78
2022-10-12T02:33:57.284Z,79.81
2022-10-12T02:36:46.045Z,80.33
2022-10-12T02:39:36.172Z,79.97
2022-10-12T02:42:12.392Z,81.02
2022-10-12T02:44:42.047Z,81.77
2022-10-12T02:47:11.721Z,81.92
2022-10-12T02:49:40.446Z,80.23
2022-10-12T02:52:08.421Z,79.05
2022-10-12T02:54:36.657Z,78.66
2022-10-12T02:57:04.062Z,79.45
2022-10-12T02:59:31.555Z,79.23
2022-10-12T03:01:58.884Z,78.72
2022-10-12T03:04:26.346Z,79.14
2022-10-12T03:06:53.730Z,77.98
2022-10-12T03:09:21.373Z,78.73
2022-10-12T03:11:48.792Z,77.40
2022-10-12T03:14:17.461Z,77.93
2022-10-12T03:16:46.636Z,78.21
2022-10-12T03:19:15.050Z,77.59
2022-10-12T03:21:42.445Z,77.47
2022-10-12T03:24:09.951Z,77.81
2022-10-12T03:26:37.467Z,77.61
2022-10-12T03:29:05.409Z,78.23
2022-10-12T03:31:32.825Z,80.29
2022-10-12T03:34:00.561Z,80.46
2022-10-12T03:36:27.933Z,80.65
2022-10-12T03:38:55.632Z,80.48
2022-10-12T03:41:23.189Z,81.39
2022-10-12T03:43:50.629Z,80.77
2022-10-12T03:46:18.148Z,80.30
2022-10-12T03:48:45.566Z,80.27
2022-10-12T03:51:13.140Z,80.70
2022-10-12T03:53:45.184Z,79.69
2022-10-12T03:56:13.385Z,80.61
2022-10-12T03:58:40.956Z,81.09
2022-10-12T04:01:08.426Z,79.44
2022-10-12T04:03:36.596Z,81.25
2022-10-12T04:06:04.133Z,80.02
2022-10-12T04:08:31.575Z,80.33
2022-10-12T04:10:59.014Z,80.29
2022-10-12T04:13:26.398Z,79.74
2022-10-12T05:09:44.697Z,78.92
2022-10-12T05:28:12.789Z,77.14
2022-10-12T05:30:48.097Z,77.20
2022-10-12T05:56:51.692Z,79.48
2022-10-12T08:07:25.326Z,42.88
2022-10-12T08:09:52.823Z,43.70
2022-10-12T08:12:20.664Z,42.68
2022-10-12T08:14:48.191Z,37.88
2022-10-12T08:17:15.800Z,37.08
2022-10-12T08:19:43.283Z,36.77
2022-10-12T08:22:12.540Z,33.86
2022-10-12T08:24:39.957Z,32.21
2022-10-12T08:27:07.528Z,34.65
2022-10-12T08:29:35.033Z,35.79
2022-10-12T08:32:02.569Z,35.26
2022-10-12T08:34:30.978Z,37.46
2022-10-12T08:36:59.649Z,38.58
2022-10-12T08:39:27.605Z,37.65
2022-10-12T08:42:16.567Z,35.32
2022-10-12T08:45:01.664Z,36.47
2022-10-12T08:47:51.575Z,35.48
2022-10-12T08:50:38.603Z,41.44
2022-10-12T08:53:19.427Z,35.81
2022-10-12T08:55:47.165Z,37.33
2022-10-12T08:58:35.674Z,36.00
2022-10-12T09:01:16.631Z,34.33
2022-10-12T09:03:55.609Z,33.73
2022-10-12T09:06:30.125Z,37.92
2022-10-12T09:09:03.408Z,34.88
2022-10-12T09:11:58.833Z,38.44
2022-10-12T09:14:30.913Z,35.23
2022-10-12T09:17:02.615Z,37.33
2022-10-12T09:19:42.025Z,35.15
2022-10-12T09:22:19.424Z,35.33
2022-10-12T09:24:49.978Z,34.09
2022-10-12T09:27:20.542Z,35.07
2022-10-12T09:29:52.311Z,34.56
2022-10-12T09:32:40.705Z,37.46
2022-10-12T09:35:13.105Z,36.74
2022-10-12T09:37:41.279Z,36.45
2022-10-12T09:40:22.200Z,34.73
2022-10-12T09:42:51.026Z,33.97
2022-10-12T09:45:20.776Z,36.03
2022-10-12T09:48:20.551Z,35.63
2022-10-12T09:51:04.225Z,34.49
2022-10-12T09:53:56.745Z,34.97
2022-10-12T09:56:36.345Z,36.16
2022-10-12T09:59:25.434Z,35.74
2022-10-12T10:02:04.217Z,35.39
2022-10-12T10:04:34.931Z,38.31
2022-10-12T10:07:22.728Z,38.06
2022-10-12T10:10:18.548Z,38.64
2022-10-12T10:13:03.004Z,39.01
2022-10-12T10:15:38.810Z,39.27
2022-10-12T10:18:17.846Z,38.96
2022-10-12T10:20:53.352Z,38.72
2022-10-12T10:23:33.434Z,39.06
2022-10-12T10:26:08.703Z,39.06
2022-10-12T10:28:38.678Z,39.35
2022-10-12T10:31:13.904Z,39.27
2022-10-12T10:33:41.917Z,40.65
2022-10-12T10:36:20.488Z,41.65
2022-10-12T10:39:16.260Z,41.70
2022-10-12T10:41:44.027Z,41.56
2022-10-12T10:44:37.596Z,44.03
2022-10-12T10:47:11.833Z,39.94
2022-10-12T10:50:00.561Z,40.50
2022-10-12T10:52:36.937Z,41.23
2022-10-12T10:55:10.163Z,43.52
2022-10-12T10:57:45.279Z,40.49
2022-10-12T11:00:39.096Z,40.73
2022-10-12T11:03:31.380Z,41.48
2022-10-12T11:06:16.619Z,43.53
2022-10-12T11:08:44.670Z,40.79
2022-10-12T11:11:21.165Z,42.26
2022-10-12T11:14:19.277Z,47.08
2022-10-12T11:17:01.753Z,41.75
2022-10-12T11:19:42.311Z,42.38
2022-10-12T11:22:19.233Z,43.98
2022-10-12T11:25:02.177Z,41.79
2022-10-12T11:27:40.947Z,42.90
2022-10-12T11:30:17.854Z,44.69
2022-10-12T11:33:03.223Z,43.57
2022-10-12T11:35:40.288Z,48.91
2022-10-12T11:38:22.583Z,42.05
2022-10-12T11:41:31.128Z,42.65
2022-10-12T11:44:20.609Z,43.31
2022-10-12T11:47:00.680Z,44.86
2022-10-12T11:49:46.707Z,43.34
2022-10-12T11:52:15.375Z,45.57
2022-10-12T11:55:05.351Z,44.03
2022-10-12T11:57:37.364Z,40.73
2022-10-12T12:00:19.513Z,40.57
2022-10-12T12:02:55.808Z,40.89
2022-10-12T12:05:23.461Z,41.22
2022-10-12T12:07:53.878Z,41.06
2022-10-12T12:10:37.151Z,41.65
2022-10-12T12:13:13.441Z,42.84
2022-10-12T12:15:43.481Z,41.55
2022-10-12T12:18:18.754Z,45.34
2022-10-12T12:20:49.069Z,42.58
2022-10-12T12:23:29.455Z,43.46
2022-10-12T12:26:16.305Z,39.57
2022-10-12T12:28:49.977Z,38.62
2022-10-12T12:31:23.522Z,38.38
2022-10-12T12:34:02.361Z,41.70
2022-10-12T12:36:33.833Z,44.62
2022-10-12T12:39:03.006Z,41.52
2022-10-12T12:42:00.575Z,40.71
2022-10-12T12:44:37.944Z,42.38
2022-10-12T12:47:26.074Z,44.87
2022-10-12T12:49:55.766Z,40.20
2022-10-12T12:52:34.096Z,38.87
2022-10-12T12:55:26.744Z,38.37
2022-10-12T12:58:09.605Z,39.49
2022-10-12T13:01:00.504Z,39.26
2022-10-12T13:04:00.062Z,39.87
2022-10-12T13:06:27.482Z,40.14
2022-10-12T13:09:31.720Z,38.60
2022-10-12T13:12:14.285Z,39.04
2022-10-12T13:14:59.145Z,38.56
2022-10-12T13:17:54.472Z,37.26
2022-10-12T13:20:26.938Z,41.54
2022-10-12T13:22:57.918Z,40.86
2022-10-12T13:25:32.931Z,40.25
2022-10-12T13:28:04.601Z,38.72
2022-10-12T13:30:55.908Z,39.51
2022-10-12T13:33:50.975Z,38.91
2022-10-12T13:36:23.780Z,38.26
2022-10-12T13:39:00.170Z,38.13
2022-10-12T13:41:30.537Z,37.61
2022-10-12T13:44:04.853Z,39.72
2022-10-12T13:46:45.947Z,39.30
2022-10-12T13:49:20.259Z,38.87
2022-10-12T13:51:53.320Z,39.49
2022-10-12T13:54:41.688Z,39.40
2022-10-12T13:57:42.699Z,39.82
2022-10-12T14:00:21.022Z,40.27
2022-10-12T14:02:59.518Z,38.12
2022-10-12T14:05:35.018Z,38.75
2022-10-12T14:08:11.153Z,38.76
2022-10-12T14:10:39.320Z,38.24
2022-10-12T14:13:09.477Z,39.36
2022-10-12T14:15:40.009Z,37.94
2022-10-12T14:18:50.817Z,39.89
2022-10-12T14:21:33.294Z,40.25
2022-10-12T14:24:09.869Z,39.31
2022-10-12T14:26:55.802Z,39.85
2022-10-12T14:29:40.402Z,39.68
2022-10-12T14:32:37.465Z,38.78
2022-10-12T14:35:12.673Z,40.10
2022-10-12T14:37:40.028Z,42.14
2022-10-12T14:40:26.456Z,38.48
2022-10-12T14:43:15.302Z,39.26
2022-10-12T14:45:42.847Z,39.56
2022-10-12T14:48:16.512Z,39.69
2022-10-12T14:50:44.522Z,40.04
2022-10-12T14:53:13.836Z,40.67
2022-10-12T14:55:42.691Z,39.89
2022-10-12T14:58:15.624Z,41.35
2022-10-12T15:00:44.245Z,40.56
2022-10-12T15:03:12.101Z,40.72
2022-10-12T15:05:39.760Z,40.71
2022-10-12T15:08:38.344Z,41.16
2022-10-12T15:11:06.895Z,39.85
2022-10-12T15:13:38.194Z,41.48
2022-10-12T15:16:18.579Z,41.72
2022-10-12T15:18:46.406Z,40.29
2022-10-12T15:21:14.114Z,41.42
2022-10-12T15:23:42.617Z,39.99
2022-10-12T15:26:16.316Z,41.58
2022-10-12T15:28:44.418Z,40.62
2022-10-12T15:31:19.578Z,40.30
2022-10-12T15:33:47.747Z,40.50
2022-10-12T15:36:15.552Z,40.58
2022-10-12T15:38:42.995Z,41.31
2022-10-12T15:41:20.607Z,41.80
2022-10-12T15:43:51.080Z,41.54
2022-10-12T15:46:27.923Z,42.13
2022-10-12T15:48:57.871Z,42.03
2022-10-12T15:51:25.565Z,45.16
2022-10-12T15:53:56.289Z,44.98
2022-10-12T15:56:24.172Z,45.00
2022-10-12T15:58:51.897Z,44.61
2022-10-12T16:01:20.653Z,46.04
2022-10-12T16:03:49.572Z,45.56
2022-10-12T16:06:17.040Z,44.13
2022-10-12T16:08:44.504Z,47.51
2022-10-12T16:11:14.536Z,48.35
2022-10-12T16:13:47.990Z,50.84
2022-10-12T16:16:19.402Z,49.43
2022-10-12T16:18:46.904Z,50.12
2022-10-12T16:21:14.396Z,47.69
2022-10-12T16:23:42.275Z,49.43
2022-10-12T16:26:19.349Z,46.67
2022-10-12T16:28:46.961Z,47.05
2022-10-12T16:31:17.693Z,49.18
2022-10-12T16:33:50.175Z,50.59
2022-10-12T16:36:20.475Z,50.67
2022-10-12T16:38:47.907Z,52.11
2022-10-12T16:41:16.697Z,51.83
2022-10-12T16:43:44.680Z,51.84
2022-10-12T16:46:36.760Z,51.68
2022-10-12T16:49:04.281Z,52.87
2022-10-12T16:51:31.887Z,53.27
2022-10-12T16:53:59.431Z,55.51
2022-10-12T16:56:27.105Z,53.97
2022-10-12T16:59:00.091Z,54.02
2022-10-12T17:01:27.632Z,50.74
2022-10-12T17:03:55.155Z,53.34
2022-10-12T17:06:27.993Z,53.42
2022-10-12T17:08:58.665Z,54.46
2022-10-12T17:11:26.103Z,53.45
2022-10-12T17:13:57.189Z,51.93
2022-10-12T17:16:47.049Z,49.69
2022-10-12T17:19:32.530Z,52.99
2022-10-12T17:22:04.253Z,53.57
2022-10-12T17:24:34.512Z,54.36
2022-10-12T17:27:03.837Z,55.63
2022-10-12T17:29:32.600Z,55.85
2022-10-12T17:32:10.127Z,55.93
2022-10-12T17:34:44.904Z,55.35
2022-10-12T17:37:13.625Z,55.49
2022-10-12T17:40:00.609Z,55.35
2022-10-12T17:42:30.915Z,56.25
2022-10-12T17:44:59.755Z,55.99
2022-10-12T17:47:30.335Z,57.46
2022-10-12T17:49:57.825Z,57.76
2022-10-12T17:52:36.270Z,57.54
2022-10-12T17:55:03.986Z,59.52
2022-10-12T17:57:31.434Z,59.14
2022-10-12T18:00:02.589Z,58.74
2022-10-12T18:02:40.669Z,57.53
2022-10-12T18:05:09.640Z,58.13
2022-10-12T18:07:41.438Z,56.82
2022-10-12T18:10:09.864Z,57.74
2022-10-12T18:12:37.596Z,58.84
2022-10-12T18:15:07.527Z,59.05
2022-10-12T18:17:35.339Z,57.32
2022-10-12T18:20:05.313Z,58.09
2022-10-12T18:22:33.554Z,58.23
2022-10-12T23:24:43.824Z,75.50
2022-10-12T23:27:17.957Z,75.72
2022-10-12T23:30:44.403Z,77.21
2022-10-12T23:33:48.463Z,81.67
2022-10-12T23:45:45.493Z,76.95
2022-10-12T23:52:28.581Z,78.83
2022-10-12T23:55:07.402Z,83.75
2022-10-12T23:58:57.676Z,84.43
